Metar z połowy godziny Komunikat METAR ze strony awiacja.imgw.pl Metar G00 EPWR METAR EPWR 212330Z 09010KT CAVOK 21/12 Q1007 =